Green Lofoten — P3MG8 — position and weather

sailwx.info

Track history (hours):
 
Tides and Currents Weather Stations Pressure Air Temp Water Temp Dewpoint Dewpoint Depression Visibility Wind Speed Wind Dir Waves Ship Positions

Green Lofoten

Last reported at 2014-Oct-28 00:14 UTC. Time now 2014-Oct-31 12:58 UTC.
Position N 61°50' W 007°53'.

Length 98 m; draft 4.4 m.

Type: Cargo ship. MMSI: 212857000.

Date/timePositionNaut miles runAvg speedWind from/ knotsBaromVisibWave heightAir tempDewpointWater temp
2014-Oct-28 00:14N 61°50' W 007°53'913.1
2014-Oct-27 23:34N 61°43' W 007°42'3113.7
2014-Oct-27 21:19N 61°18' W 007°04'1414.3
2014-Oct-27 20:21N 61°07' W 006°47'13713.6
2014-Oct-27 10:17N 59°12' W 004°15'1013.1
2014-Oct-27 09:33N 59°03' W 004°07'1312.9
2014-Oct-27 08:33N 58°52' W 003°56'1110.9
2014-Oct-27 07:33N 58°44' W 003°42'1110.1
2014-Oct-27 06:28N 58°43' W 003°21'1314.0
2014-Oct-27 05:33N 58°40' W 002°57'7 0.7
2014-Oct-26 19:31N 58°33' W 002°54'8 8.7
2014-Oct-26 18:34N 58°41' W 003°01'1 1.3
2014-Oct-26 17:33N 58°42' W 003°03'9 9.0
2014-Oct-26 16:33N 58°34' W 002°56'51 3.1
2014-Oct-26 00:14N 57°50' W 002°05'2 2.3
2014-Oct-25 23:12N 57°49' W 002°00'2 2.4
2014-Oct-25 22:29N 57°49' W 001°57'2 2.5
2014-Oct-25 21:33N 57°48' W 001°53'37611.6
2014-Oct-24 13:13N 57°49' E 009°52'912.9
2014-Oct-24 12:30N 57°50' E 010°10'1212.4
2014-Oct-24 11:34N 57°50' E 010°31'1212.1
2014-Oct-24 10:33N 57°45' E 010°52'1414.0
2014-Oct-24 09:34N 57°35' E 011°11'1514.9
2014-Oct-24 08:33N 57°24' E 011°29'1514.9
2014-Oct-24 07:34N 57°10' E 011°38'1414.3
2014-Oct-24 06:33N 56°56' E 011°47'1413.9
2014-Oct-24 05:33N 56°43' E 011°55'1413.9
2014-Oct-24 04:33N 56°30' E 012°00'1413.7
2014-Oct-24 03:33N 56°17' E 012°09'1514.8
2014-Oct-24 02:34N 56°08' E 012°31'1414.1
2014-Oct-24 01:33N 55°55' E 012°39'1514.9
2014-Oct-24 00:34N 55°40' E 012°41'1212.5
2014-Oct-23 23:33N 55°28' E 012°42'1211.8
2014-Oct-23 22:33N 55°16' E 012°50'9413.4
2014-Oct-23 15:34N 53°57' E 014°16'3 3.3
2014-Oct-23 14:33N 53°54' E 014°16'0 0.0
2014-Oct-23 13:33N 53°54' E 014°16'0 0.0
2014-Oct-23 12:33N 53°54' E 014°16'0 0.0
2014-Oct-23 11:33N 53°54' E 014°16'0 0.0
2014-Oct-23 10:33N 53°54' E 014°16'0 0.0
2014-Oct-23 09:33N 53°54' E 014°16'0 0.0
2014-Oct-23 08:33N 53°54' E 014°16'0 0.0
2014-Oct-23 07:33N 53°54' E 014°16'0 0.0
2014-Oct-23 06:33N 53°54' E 014°16'0 0.0
2014-Oct-23 05:33N 53°54' E 014°16'0 0.0
2014-Oct-23 04:33N 53°54' E 014°16'0 0.0
2014-Oct-23 03:33N 53°54' E 014°16'0 0.0
2014-Oct-23 02:33N 53°54' E 014°16'0 0.0
2014-Oct-23 01:33N 53°54' E 014°16'0 0.0
2014-Oct-23 00:33N 53°54' E 014°16'0 0.0
2014-Oct-22 23:33N 53°54' E 014°16'0 0.0
2014-Oct-22 22:33N 53°54' E 014°16'0 0.0
2014-Oct-22 21:30N 53°54' E 014°16'0 0.0
2014-Oct-22 20:33N 53°54' E 014°16'0 0.0
2014-Oct-22 19:30N 53°54' E 014°16'0 0.0
2014-Oct-22 18:33N 53°54' E 014°16'0 0.0
2014-Oct-22 17:33N 53°54' E 014°16'0 0.0
2014-Oct-22 16:33N 53°54' E 014°16'0 0.0
2014-Oct-22 15:33N 53°54' E 014°16'0 0.0
2014-Oct-22 14:33N 53°54' E 014°16'0 0.0
2014-Oct-22 13:33N 53°54' E 014°16'0 0.0
2014-Oct-22 12:30N 53°54' E 014°16'0 0.0
2014-Oct-22 11:33N 53°54' E 014°16'0 0.0
2014-Oct-22 10:30N 53°54' E 014°16'0 0.0
2014-Oct-22 09:33N 53°54' E 014°16'0 0.0
2014-Oct-22 08:30N 53°54' E 014°16'0 0.0
2014-Oct-22 07:33N 53°54' E 014°16'0 0.0
2014-Oct-22 06:33N 53°54' E 014°16'0 0.0
2014-Oct-22 05:33N 53°54' E 014°16'3 3.1
2014-Oct-22 04:33N 53°57' E 014°16'18311.4
2014-Oct-21 12:27N 55°22' E 018°57'38 0.8
2014-Oct-19 13:23N 54°60' E 019°52'1012.1
2014-Oct-19 12:33N 54°52' E 019°42'9 9.2
2014-Oct-19 11:33N 54°43' E 019°42'10 9.3
2014-Oct-19 10:28N 54°38' E 019°58'8 7.7
2014-Oct-19 09:29N 54°41' E 020°10'7 7.8
2014-Oct-19 08:31N 54°41' E 020°23'3 0.1
2014-Oct-18 11:11N 54°42' E 020°27'  
Track history (hours):
 
Tides and Currents Weather Stations Pressure Air Temp Water Temp Dewpoint Dewpoint Depression Visibility Wind Speed Wind Dir Waves Ship Positions

Green Lofoten

Last reported at 2014-Oct-28 00:14 UTC. Time now 2014-Oct-31 12:58 UTC.
Position N 61°50' W 007°53'.

Length 98 m; draft 4.4 m.

Type: Cargo ship. MMSI: 212857000.

Date/timePositionNaut miles runAvg speedWind from/ knotsBaromVisibWave heightAir tempDewpointWater temp
2014-Oct-28 00:14N 61°50' W 007°53'913.1
2014-Oct-27 23:34N 61°43' W 007°42'3113.7
2014-Oct-27 21:19N 61°18' W 007°04'1414.3
2014-Oct-27 20:21N 61°07' W 006°47'13713.6
2014-Oct-27 10:17N 59°12' W 004°15'1013.1
2014-Oct-27 09:33N 59°03' W 004°07'1312.9
2014-Oct-27 08:33N 58°52' W 003°56'1110.9
2014-Oct-27 07:33N 58°44' W 003°42'1110.1
2014-Oct-27 06:28N 58°43' W 003°21'1314.0
2014-Oct-27 05:33N 58°40' W 002°57'7 0.7
2014-Oct-26 19:31N 58°33' W 002°54'8 8.7
2014-Oct-26 18:34N 58°41' W 003°01'1 1.3
2014-Oct-26 17:33N 58°42' W 003°03'9 9.0
2014-Oct-26 16:33N 58°34' W 002°56'51 3.1
2014-Oct-26 00:14N 57°50' W 002°05'2 2.3
2014-Oct-25 23:12N 57°49' W 002°00'2 2.4
2014-Oct-25 22:29N 57°49' W 001°57'2 2.5
2014-Oct-25 21:33N 57°48' W 001°53'37611.6
2014-Oct-24 13:13N 57°49' E 009°52'912.9
2014-Oct-24 12:30N 57°50' E 010°10'1212.4
2014-Oct-24 11:34N 57°50' E 010°31'1212.1
2014-Oct-24 10:33N 57°45' E 010°52'1414.0
2014-Oct-24 09:34N 57°35' E 011°11'1514.9
2014-Oct-24 08:33N 57°24' E 011°29'1514.9
2014-Oct-24 07:34N 57°10' E 011°38'1414.3
2014-Oct-24 06:33N 56°56' E 011°47'1413.9
2014-Oct-24 05:33N 56°43' E 011°55'1413.9
2014-Oct-24 04:33N 56°30' E 012°00'1413.7
2014-Oct-24 03:33N 56°17' E 012°09'1514.8
2014-Oct-24 02:34N 56°08' E 012°31'1414.1
2014-Oct-24 01:33N 55°55' E 012°39'1514.9
2014-Oct-24 00:34N 55°40' E 012°41'1212.5
2014-Oct-23 23:33N 55°28' E 012°42'1211.8
2014-Oct-23 22:33N 55°16' E 012°50'9413.4
2014-Oct-23 15:34N 53°57' E 014°16'3 3.3
2014-Oct-23 14:33N 53°54' E 014°16'0 0.0
2014-Oct-23 13:33N 53°54' E 014°16'0 0.0
2014-Oct-23 12:33N 53°54' E 014°16'0 0.0
2014-Oct-23 11:33N 53°54' E 014°16'0 0.0
2014-Oct-23 10:33N 53°54' E 014°16'0 0.0
2014-Oct-23 09:33N 53°54' E 014°16'0 0.0
2014-Oct-23 08:33N 53°54' E 014°16'0 0.0
2014-Oct-23 07:33N 53°54' E 014°16'0 0.0
2014-Oct-23 06:33N 53°54' E 014°16'0 0.0
2014-Oct-23 05:33N 53°54' E 014°16'0 0.0
2014-Oct-23 04:33N 53°54' E 014°16'0 0.0
2014-Oct-23 03:33N 53°54' E 014°16'0 0.0
2014-Oct-23 02:33N 53°54' E 014°16'0 0.0
2014-Oct-23 01:33N 53°54' E 014°16'0 0.0
2014-Oct-23 00:33N 53°54' E 014°16'0 0.0
2014-Oct-22 23:33N 53°54' E 014°16'0 0.0
2014-Oct-22 22:33N 53°54' E 014°16'0 0.0
2014-Oct-22 21:30N 53°54' E 014°16'0 0.0
2014-Oct-22 20:33N 53°54' E 014°16'0 0.0
2014-Oct-22 19:30N 53°54' E 014°16'0 0.0
2014-Oct-22 18:33N 53°54' E 014°16'0 0.0
2014-Oct-22 17:33N 53°54' E 014°16'0 0.0
2014-Oct-22 16:33N 53°54' E 014°16'0 0.0
2014-Oct-22 15:33N 53°54' E 014°16'0 0.0
2014-Oct-22 14:33N 53°54' E 014°16'0 0.0
2014-Oct-22 13:33N 53°54' E 014°16'0 0.0
2014-Oct-22 12:30N 53°54' E 014°16'0 0.0
2014-Oct-22 11:33N 53°54' E 014°16'0 0.0
2014-Oct-22 10:30N 53°54' E 014°16'0 0.0
2014-Oct-22 09:33N 53°54' E 014°16'0 0.0
2014-Oct-22 08:30N 53°54' E 014°16'0 0.0
2014-Oct-22 07:33N 53°54' E 014°16'0 0.0
2014-Oct-22 06:33N 53°54' E 014°16'0 0.0
2014-Oct-22 05:33N 53°54' E 014°16'3 3.1
2014-Oct-22 04:33N 53°57' E 014°16'18311.4
2014-Oct-21 12:27N 55°22' E 018°57'38 0.8
2014-Oct-19 13:23N 54°60' E 019°52'1012.1
2014-Oct-19 12:33N 54°52' E 019°42'9 9.2
2014-Oct-19 11:33N 54°43' E 019°42'10 9.3
2014-Oct-19 10:28N 54°38' E 019°58'8 7.7
2014-Oct-19 09:29N 54°41' E 020°10'7 7.8
2014-Oct-19 08:31N 54°41' E 020°23'3 0.1
2014-Oct-18 11:11N 54°42' E 020°27'  

Dump ship's entire track history